createdAt,value
2023-12-14T00:01:00.680Z,7.83
2023-12-14T00:11:10.033Z,8.06
2023-12-14T00:21:11.895Z,7.59
2023-12-14T00:31:13.304Z,7.88
2023-12-14T00:41:14.797Z,7.68
2023-12-14T00:51:16.228Z,7.38
2023-12-14T01:01:17.952Z,7.34
2023-12-14T01:11:19.419Z,7.30
2023-12-14T01:21:20.926Z,7.24
2023-12-14T01:31:24.308Z,7.09
2023-12-14T01:41:25.797Z,6.81
2023-12-14T01:51:27.274Z,7.00
2023-12-14T02:01:39.708Z,6.75
2023-12-14T02:11:41.297Z,6.74
2023-12-14T02:21:43.455Z,6.34
2023-12-14T02:31:44.878Z,6.37
2023-12-14T02:41:46.516Z,6.15
2023-12-14T02:51:47.880Z,6.33
2023-12-14T03:01:49.295Z,6.29
2023-12-14T03:11:50.749Z,6.42
2023-12-14T03:21:52.173Z,6.47
2023-12-14T03:31:53.819Z,6.45
2023-12-14T03:41:55.291Z,6.31
2023-12-14T03:51:56.709Z,6.30
2023-12-14T04:01:58.133Z,6.01
2023-12-14T04:11:59.576Z,6.10
2023-12-14T04:22:01.024Z,6.05
2023-12-14T04:32:02.583Z,6.01
2023-12-14T04:42:04.476Z,5.95
2023-12-14T04:52:06.435Z,5.88
2023-12-14T05:02:07.962Z,5.79
2023-12-14T05:12:09.372Z,5.64
2023-12-14T05:22:11.024Z,5.76
2023-12-14T05:32:12.462Z,5.87
2023-12-14T05:42:19.932Z,5.74
2023-12-14T05:52:21.330Z,5.71
2023-12-14T06:02:22.915Z,5.49
2023-12-14T06:12:24.517Z,5.66
2023-12-14T06:22:26.230Z,5.75
2023-12-14T06:32:28.026Z,5.68
2023-12-14T06:42:29.535Z,5.65
2023-12-14T06:52:30.952Z,5.73
2023-12-14T07:02:32.577Z,5.58
2023-12-14T07:12:34.328Z,5.68
2023-12-14T07:22:36.364Z,5.55
2023-12-14T07:32:38.224Z,5.76
2023-12-14T07:42:39.867Z,5.63
2023-12-14T07:52:41.903Z,5.67
2023-12-14T08:02:43.511Z,5.51
2023-12-14T08:12:44.888Z,5.63
2023-12-14T08:22:46.416Z,5.79
2023-12-14T08:32:47.976Z,5.71
2023-12-14T08:42:49.663Z,5.70
2023-12-14T08:52:52.604Z,5.61
2023-12-14T09:02:54.848Z,5.64
2023-12-14T09:12:56.300Z,5.73
2023-12-14T09:22:58.103Z,5.69
2023-12-14T09:32:59.636Z,5.79
2023-12-14T09:43:01.632Z,5.83
2023-12-14T09:53:03.110Z,5.81
2023-12-14T10:03:22.943Z,5.77
2023-12-14T10:13:38.636Z,5.89
2023-12-14T10:23:40.301Z,5.82
2023-12-14T10:33:41.895Z,5.90
2023-12-14T10:43:49.291Z,5.87
2023-12-14T10:53:53.051Z,5.89
2023-12-14T11:04:00.017Z,6.00
2023-12-14T11:14:01.505Z,5.99
2023-12-14T11:24:03.004Z,6.04
2023-12-14T11:34:08.275Z,6.06
2023-12-14T11:44:09.702Z,6.02
2023-12-14T11:54:11.212Z,5.91
2023-12-14T12:04:12.736Z,5.89
2023-12-14T12:14:14.768Z,5.91
2023-12-14T12:24:22.917Z,5.87
2023-12-14T12:34:28.852Z,5.93
2023-12-14T12:44:30.574Z,5.79
2023-12-14T12:54:33.651Z,5.71
2023-12-14T13:04:35.099Z,5.65
2023-12-14T13:14:37.130Z,5.67
2023-12-14T13:24:39.227Z,5.62
2023-12-14T13:34:40.760Z,5.66
2023-12-14T13:44:42.484Z,5.58
2023-12-14T13:54:43.863Z,5.40
2023-12-14T14:04:47.379Z,5.39
2023-12-14T14:14:50.717Z,5.21
2023-12-14T14:24:52.149Z,5.17
2023-12-14T14:34:55.712Z,5.20
2023-12-14T14:44:57.299Z,5.22
2023-12-14T14:54:58.829Z,5.01
2023-12-14T15:05:00.269Z,5.17
2023-12-14T15:15:01.810Z,5.20
2023-12-14T15:25:05.216Z,5.26
2023-12-14T15:35:06.860Z,5.20
2023-12-14T15:45:10.546Z,5.15
2023-12-14T15:55:12.328Z,5.27
